createdAt,value
2017-10-09T00:01:01.814Z,6.30
2017-10-09T00:02:04.308Z,7.32
2017-10-09T00:03:06.801Z,5.97
2017-10-09T00:04:09.320Z,6.15
2017-10-09T00:05:11.941Z,7.07
2017-10-09T00:06:16.348Z,7.45
2017-10-09T00:07:19.623Z,6.70
2017-10-09T00:08:22.094Z,7.20
2017-10-09T00:09:24.571Z,7.45
2017-10-09T00:10:27.837Z,8.00
2017-10-09T00:11:30.331Z,7.15
2017-10-09T00:12:33.571Z,7.50
2017-10-09T00:13:36.075Z,7.80
2017-10-09T00:14:39.312Z,7.32
2017-10-09T00:15:42.020Z,7.85
2017-10-09T00:16:45.417Z,6.20
2017-10-09T00:17:48.696Z,7.72
2017-10-09T00:18:51.934Z,6.62
2017-10-09T00:19:54.426Z,5.80
2017-10-09T00:20:58.460Z,6.68
2017-10-09T00:22:01.733Z,6.15
2017-10-09T00:23:05.003Z,6.35
2017-10-09T00:24:08.248Z,7.50
2017-10-09T00:25:10.756Z,7.87
2017-10-09T00:26:14.197Z,7.35
2017-10-09T00:27:16.722Z,6.97
2017-10-09T00:28:20.072Z,7.62
2017-10-09T00:29:27.943Z,8.80
2017-10-09T00:30:30.533Z,9.55
2017-10-09T00:31:33.030Z,8.65
2017-10-09T00:32:36.290Z,7.97
2017-10-09T00:33:38.832Z,8.02
2017-10-09T00:34:41.480Z,7.85
2017-10-09T00:35:43.993Z,7.43
2017-10-09T00:36:47.243Z,6.62
2017-10-09T00:37:49.810Z,7.60
2017-10-09T00:38:52.331Z,8.90
2017-10-09T00:39:55.587Z,8.52
2017-10-09T00:40:58.056Z,7.97
2017-10-09T00:42:01.552Z,8.02
2017-10-09T00:43:04.828Z,8.43
2017-10-09T00:44:07.485Z,8.65
2017-10-09T00:45:10.103Z,8.45
2017-10-09T00:46:12.615Z,6.82
2017-10-09T00:47:15.109Z,7.35
2017-10-09T00:48:18.371Z,8.07
2017-10-09T00:49:26.363Z,7.10
2017-10-09T00:50:28.893Z,7.40
2017-10-09T00:51:31.397Z,7.10
2017-10-09T00:52:34.905Z,6.60
2017-10-09T00:53:37.392Z,6.55
2017-10-09T00:54:40.698Z,7.55
2017-10-09T00:55:43.184Z,7.35
2017-10-09T00:56:45.689Z,7.53
2017-10-09T00:57:48.167Z,8.20
2017-10-09T00:58:51.431Z,6.68
2017-10-09T00:59:53.915Z,7.82
2017-10-09T01:00:57.158Z,6.60
2017-10-09T01:01:59.658Z,7.18
2017-10-09T01:03:02.266Z,8.18
2017-10-09T01:04:04.832Z,6.95
2017-10-09T01:05:07.347Z,7.62
2017-10-09T01:06:15.704Z,8.15
2017-10-09T01:07:18.292Z,7.40
2017-10-09T01:08:20.862Z,7.37
2017-10-09T01:09:24.528Z,7.40
2017-10-09T01:10:28.017Z,8.48
2017-10-09T01:11:30.542Z,8.15
2017-10-09T01:12:33.059Z,8.05
2017-10-09T01:13:35.547Z,8.65
2017-10-09T01:14:38.030Z,9.45
2017-10-09T01:15:40.548Z,10.00
2017-10-09T01:16:43.139Z,8.13
2017-10-09T01:17:46.685Z,9.25
2017-10-09T01:18:50.007Z,9.85
2017-10-09T01:19:53.517Z,9.40
2017-10-09T01:20:56.611Z,8.90
2017-10-09T01:21:59.077Z,8.57
2017-10-09T01:23:01.600Z,9.10
2017-10-09T01:24:04.105Z,8.98
2017-10-09T01:25:06.652Z,8.88
2017-10-09T01:26:09.130Z,9.38
2017-10-09T01:27:11.632Z,9.15
2017-10-09T01:28:14.878Z,9.30
2017-10-09T01:29:17.387Z,9.18
2017-10-09T01:30:20.628Z,9.23
2017-10-09T01:31:23.126Z,9.70
2017-10-09T01:32:26.383Z,9.45
2017-10-09T01:33:29.788Z,10.23
2017-10-09T01:34:32.382Z,9.38
2017-10-09T01:35:34.878Z,8.50
2017-10-09T01:36:37.377Z,10.70
2017-10-09T01:37:39.864Z,9.77
2017-10-09T01:38:43.108Z,10.10
2017-10-09T01:39:45.604Z,8.52
2017-10-09T01:40:53.545Z,9.43
2017-10-09T01:41:56.758Z,9.32
2017-10-09T01:42:59.247Z,9.63
2017-10-09T01:44:02.558Z,8.30
2017-10-09T01:45:06.104Z,8.98
2017-10-09T01:46:08.695Z,8.23
2017-10-09T01:47:12.199Z,8.48
2017-10-09T01:48:14.685Z,8.52
2017-10-09T01:49:17.231Z,9.40
2017-10-09T01:50:19.828Z,8.60
2017-10-09T01:51:23.473Z,9.40
2017-10-09T01:52:26.723Z,9.88
2017-10-09T01:53:30.088Z,10.25
2017-10-09T01:54:32.579Z,8.45
2017-10-09T01:55:35.838Z,8.57
2017-10-09T01:56:38.299Z,9.20
2017-10-09T01:57:40.784Z,8.60
2017-10-09T01:58:49.034Z,8.05
2017-10-09T01:59:52.715Z,10.65
2017-10-09T02:00:56.090Z,7.50
2017-10-09T02:01:59.336Z,9.25
2017-10-09T02:03:02.127Z,7.68
2017-10-09T02:04:04.611Z,8.35
2017-10-09T02:05:07.892Z,8.05
2017-10-09T02:06:13.073Z,7.78
2017-10-09T02:07:15.603Z,8.07
2017-10-09T02:08:18.999Z,8.05
2017-10-09T02:09:21.541Z,8.52
2017-10-09T02:10:31.938Z,7.37
2017-10-09T02:11:34.416Z,7.45
2017-10-09T02:12:38.140Z,7.30
2017-10-09T02:13:41.840Z,7.55
2017-10-09T02:14:45.136Z,7.07
2017-10-09T02:15:49.568Z,7.53
2017-10-09T02:16:52.421Z,8.20
2017-10-09T02:17:55.679Z,8.10
2017-10-09T02:18:58.303Z,7.97
2017-10-09T02:20:00.776Z,9.00
2017-10-09T02:21:03.258Z,8.32
2017-10-09T02:22:06.709Z,8.25
2017-10-09T02:23:09.233Z,8.55
2017-10-09T02:24:11.958Z,8.18
2017-10-09T02:25:14.935Z,8.30
2017-10-09T02:26:17.435Z,9.13
2017-10-09T02:27:20.023Z,9.18
2017-10-09T02:28:23.263Z,9.93
2017-10-09T02:29:26.777Z,9.88
2017-10-09T02:30:29.398Z,9.10
2017-10-09T02:31:31.908Z,10.48
2017-10-09T02:32:34.528Z,10.50
2017-10-09T02:33:37.773Z,9.18
2017-10-09T02:34:40.318Z,9.40
2017-10-09T02:35:42.851Z,9.43
2017-10-09T02:36:45.393Z,8.85
2017-10-09T02:37:48.629Z,9.60
2017-10-09T02:38:51.119Z,8.60
2017-10-09T02:39:53.631Z,9.02
2017-10-09T02:40:57.098Z,8.20
2017-10-09T02:42:00.356Z,8.25
2017-10-09T02:43:02.833Z,7.75
2017-10-09T02:44:06.119Z,9.25
2017-10-09T02:45:10.240Z,7.50
2017-10-09T02:46:13.509Z,7.62
2017-10-09T02:47:16.783Z,8.27
2017-10-09T02:48:19.283Z,8.50
2017-10-09T02:49:21.883Z,7.90
2017-10-09T02:50:24.494Z,7.70
2017-10-09T02:51:27.935Z,8.15
2017-10-09T02:52:30.521Z,8.57
2017-10-09T02:53:33.012Z,9.68
2017-10-09T02:54:36.259Z,7.57
2017-10-09T02:55:38.747Z,9.00
2017-10-09T02:56:41.259Z,8.82
2017-10-09T02:57:43.748Z,8.68
2017-10-09T02:58:46.244Z,9.40
2017-10-09T02:59:48.723Z,8.35
2017-10-09T03:00:52.570Z,9.73
2017-10-09T03:01:55.044Z,9.55
2017-10-09T03:02:57.541Z,9.95
2017-10-09T03:04:00.793Z,9.10
2017-10-09T03:05:03.295Z,9.95
2017-10-09T03:06:06.631Z,9.23
2017-10-09T03:07:09.377Z,7.82
2017-10-09T03:08:11.877Z,8.40
2017-10-09T03:09:15.361Z,9.60
2017-10-09T03:10:17.942Z,10.15
2017-10-09T03:11:20.421Z,9.68
2017-10-09T03:12:22.988Z,10.02
2017-10-09T03:13:25.522Z,10.68
2017-10-09T03:14:28.052Z,9.95
2017-10-09T03:15:31.311Z,10.85
2017-10-09T03:16:33.814Z,10.55
2017-10-09T03:17:36.309Z,9.55
2017-10-09T03:18:38.850Z,10.50
2017-10-09T03:19:41.436Z,9.25
2017-10-09T03:20:43.962Z,10.00
2017-10-09T03:21:47.210Z,11.43
2017-10-09T03:22:49.703Z,10.43
2017-10-09T03:23:55.370Z,11.12
2017-10-09T03:24:58.408Z,10.45
2017-10-09T03:27:40.006Z,10.13
2017-10-09T03:28:45.910Z,9.50
2017-10-09T03:29:48.448Z,10.02
2017-10-09T03:30:50.942Z,7.57
2017-10-09T03:31:54.430Z,9.93
2017-10-09T03:32:56.910Z,9.18
2017-10-09T03:34:00.410Z,9.13
2017-10-09T03:35:03.361Z,10.20
2017-10-09T03:36:05.870Z,9.65
2017-10-09T03:37:09.120Z,10.63
2017-10-09T03:38:11.597Z,9.80
2017-10-09T03:39:14.587Z,9.93
2017-10-09T03:40:21.451Z,8.65
2017-10-09T03:41:23.925Z,9.25
2017-10-09T03:42:26.414Z,10.27
2017-10-09T03:43:28.926Z,9.68
2017-10-09T03:44:31.449Z,9.60
2017-10-09T03:45:33.950Z,10.82
2017-10-09T03:46:36.433Z,10.35
2017-10-09T03:47:38.903Z,10.73
2017-10-09T03:48:41.375Z,9.27
2017-10-09T03:49:43.939Z,9.90
2017-10-09T03:50:46.450Z,10.05
2017-10-09T03:51:48.968Z,10.55
2017-10-09T03:52:51.490Z,10.23
2017-10-09T03:53:53.978Z,10.68
2017-10-09T03:54:56.464Z,11.50
2017-10-09T03:55:58.953Z,9.73
2017-10-09T03:57:03.210Z,10.93
2017-10-09T03:58:05.759Z,11.98
2017-10-09T03:59:08.240Z,9.02
2017-10-09T04:00:11.621Z,10.93
2017-10-09T04:01:16.021Z,9.75
2017-10-09T04:02:19.054Z,10.45
2017-10-09T04:03:24.097Z,9.95
2017-10-09T04:04:28.608Z,12.23
2017-10-09T04:05:32.807Z,10.07
2017-10-09T04:06:37.015Z,10.75
2017-10-09T04:07:41.633Z,10.05
2017-10-09T04:08:46.628Z,9.73
2017-10-09T04:09:51.964Z,10.20
2017-10-09T04:10:56.854Z,11.07
2017-10-09T04:12:00.945Z,11.20
2017-10-09T04:13:05.823Z,10.10
2017-10-09T04:14:16.129Z,11.00
2017-10-09T04:15:19.934Z,12.82
2017-10-09T04:16:22.797Z,13.45
2017-10-09T04:17:25.463Z,14.60
2017-10-09T04:18:27.966Z,17.15
2017-10-09T04:19:30.547Z,16.90
2017-10-09T04:20:34.620Z,14.77
2017-10-09T04:21:37.117Z,15.50
2017-10-09T04:22:40.024Z,14.98
2017-10-09T04:23:43.432Z,14.95
2017-10-09T04:24:45.951Z,14.15
2017-10-09T04:25:48.865Z,15.43
2017-10-09T04:26:51.395Z,15.77
2017-10-09T04:27:54.637Z,16.25
2017-10-09T04:28:57.126Z,16.02
2017-10-09T04:29:59.637Z,14.38
2017-10-09T04:31:02.156Z,14.65
2017-10-09T04:32:04.656Z,15.65
2017-10-09T04:33:08.122Z,17.52
2017-10-09T04:34:11.355Z,18.92
2017-10-09T04:35:13.842Z,20.10
2017-10-09T04:36:16.375Z,17.67
2017-10-09T04:37:19.250Z,18.15
2017-10-09T04:38:22.432Z,15.52
2017-10-09T04:39:25.044Z,16.30
2017-10-09T04:40:27.566Z,16.85
2017-10-09T04:41:30.085Z,15.27
2017-10-09T04:42:33.436Z,15.63
2017-10-09T04:43:36.047Z,14.38
2017-10-09T04:44:39.370Z,14.95
2017-10-09T04:45:42.206Z,13.25
2017-10-09T04:46:44.701Z,12.60
2017-10-09T04:47:47.687Z,14.80
2017-10-09T04:48:50.283Z,12.55
2017-10-09T04:49:52.817Z,12.18
2017-10-09T04:50:55.326Z,11.77
2017-10-09T04:51:58.871Z,12.07
2017-10-09T04:53:01.439Z,10.45
2017-10-09T04:54:03.967Z,12.70
2017-10-09T04:55:06.482Z,12.25
2017-10-09T04:56:09.994Z,12.90
2017-10-09T04:57:12.487Z,11.38
2017-10-09T04:58:20.025Z,11.30
2017-10-09T04:59:22.578Z,12.13
2017-10-09T05:00:25.121Z,12.80
2017-10-09T05:01:28.354Z,13.20
2017-10-09T05:02:35.126Z,12.75
2017-10-09T05:03:37.630Z,12.43
2017-10-09T05:04:40.135Z,12.18
2017-10-09T05:05:42.612Z,12.95
2017-10-09T05:06:46.174Z,11.82
2017-10-09T05:07:48.671Z,10.93
2017-10-09T05:08:51.161Z,12.20
2017-10-09T05:09:55.171Z,13.62
2017-10-09T05:10:58.490Z,12.65
2017-10-09T05:12:00.972Z,13.48
2017-10-09T05:13:03.525Z,13.13
2017-10-09T05:14:06.003Z,14.05
2017-10-09T05:15:08.497Z,11.10
2017-10-09T05:16:12.266Z,10.00
2017-10-09T05:17:14.771Z,9.32
2017-10-09T05:18:17.446Z,9.20
2017-10-09T05:19:20.976Z,9.10
2017-10-09T05:20:23.458Z,7.72
2017-10-09T05:21:26.006Z,8.25
2017-10-09T05:22:28.505Z,7.00
2017-10-09T05:23:31.071Z,8.35
2017-10-09T05:24:33.579Z,8.32
2017-10-09T05:25:36.889Z,8.55
2017-10-09T05:26:39.457Z,8.85
2017-10-09T05:27:42.029Z,9.00
2017-10-09T05:28:44.510Z,9.35
2017-10-09T05:29:49.028Z,8.98
2017-10-09T05:30:52.013Z,9.50
2017-10-09T05:32:04.729Z,9.70
2017-10-09T05:33:07.210Z,11.00
2017-10-09T05:34:09.712Z,10.50
2017-10-09T05:35:12.216Z,10.98
2017-10-09T05:36:14.707Z,12.20
2017-10-09T05:37:17.198Z,11.15
2017-10-09T05:38:20.483Z,12.63
2017-10-09T05:39:24.228Z,11.75
2017-10-09T05:40:26.757Z,10.93
2017-10-09T05:41:29.235Z,11.18
2017-10-09T05:42:31.748Z,11.65
2017-10-09T05:43:35.744Z,11.20
2017-10-09T05:44:38.232Z,10.73
2017-10-09T05:45:41.540Z,11.15
2017-10-09T05:46:44.060Z,11.50
2017-10-09T05:47:48.059Z,12.50
2017-10-09T05:48:50.570Z,12.35
2017-10-09T05:49:53.202Z,12.68
2017-10-09T05:50:55.710Z,12.23
2017-10-09T05:51:58.299Z,13.55
2017-10-09T05:53:00.787Z,13.98
2017-10-09T05:54:03.406Z,13.75
2017-10-09T05:55:05.975Z,13.50
2017-10-09T05:56:08.574Z,12.15
2017-10-09T05:57:11.771Z,13.35
2017-10-09T05:58:14.250Z,13.52
2017-10-09T05:59:16.738Z,12.90
2017-10-09T06:00:20.014Z,13.20
2017-10-09T06:01:23.267Z,13.65
2017-10-09T06:02:25.767Z,12.73
2017-10-09T06:03:29.032Z,13.07
2017-10-09T06:04:31.640Z,13.27
2017-10-09T06:05:35.055Z,12.00
2017-10-09T06:06:37.638Z,11.27
2017-10-09T06:07:40.145Z,12.40
2017-10-09T06:08:43.546Z,11.25
2017-10-09T06:09:46.219Z,10.05
2017-10-09T06:10:48.707Z,10.65
2017-10-09T06:11:51.192Z,12.40
2017-10-09T06:12:53.659Z,9.43
2017-10-09T06:13:56.188Z,10.45
2017-10-09T06:14:58.772Z,10.40
2017-10-09T06:16:01.297Z,9.25
2017-10-09T06:17:04.620Z,9.90
2017-10-09T06:18:07.108Z,8.98
2017-10-09T06:19:09.629Z,8.70
2017-10-09T06:20:12.885Z,8.10
2017-10-09T06:21:15.401Z,9.40
2017-10-09T06:22:17.869Z,7.57
2017-10-09T06:23:20.369Z,8.70
2017-10-09T06:24:23.006Z,8.73
2017-10-09T06:25:25.564Z,8.85
2017-10-09T06:26:28.141Z,8.13
2017-10-09T06:27:30.700Z,8.40
2017-10-09T06:28:33.274Z,8.18
2017-10-09T06:29:35.798Z,7.62
2017-10-09T06:30:38.302Z,8.02
2017-10-09T06:31:40.777Z,7.28
2017-10-09T06:32:43.289Z,8.23
2017-10-09T06:33:45.896Z,7.68
2017-10-09T06:34:49.296Z,6.78
2017-10-09T06:35:51.845Z,6.22
2017-10-09T06:36:54.519Z,6.32
2017-10-09T06:37:57.143Z,6.72
2017-10-09T06:38:59.654Z,6.72
2017-10-09T06:40:02.218Z,5.87
2017-10-09T06:41:04.696Z,6.10
2017-10-09T06:42:07.188Z,5.53
2017-10-09T06:43:09.688Z,7.03
2017-10-09T06:44:13.001Z,5.68
2017-10-09T06:45:15.563Z,6.30
2017-10-09T06:46:18.186Z,5.97
2017-10-09T06:47:20.687Z,5.00
2017-10-09T06:48:23.930Z,5.50
2017-10-09T06:49:26.408Z,5.35
2017-10-09T06:50:29.012Z,4.82
2017-10-09T06:51:31.507Z,5.30
2017-10-09T06:52:34.052Z,6.15
2017-10-09T06:53:36.523Z,6.03
2017-10-09T06:54:39.488Z,7.10
2017-10-09T06:55:41.975Z,6.12
2017-10-09T06:56:44.721Z,5.53
2017-10-09T06:57:47.292Z,7.05
2017-10-09T06:58:49.772Z,6.30
2017-10-09T06:59:52.251Z,5.80
2017-10-09T07:00:54.754Z,5.93
2017-10-09T07:01:58.015Z,5.18
2017-10-09T07:03:00.540Z,6.00
2017-10-09T07:04:03.099Z,6.07
2017-10-09T07:05:05.592Z,6.45
2017-10-09T07:06:08.131Z,5.20
2017-10-09T07:07:10.700Z,5.80
2017-10-09T07:08:13.198Z,5.65
2017-10-09T07:09:15.696Z,6.10
2017-10-09T07:10:18.349Z,4.95
2017-10-09T07:11:20.821Z,6.10
2017-10-09T07:12:23.366Z,5.32
2017-10-09T07:13:25.876Z,6.30
2017-10-09T07:14:29.162Z,6.55
2017-10-09T07:15:32.444Z,6.00
2017-10-09T07:16:35.729Z,6.70
2017-10-09T07:17:38.989Z,5.93
2017-10-09T07:18:42.525Z,6.47
2017-10-09T07:19:45.106Z,6.20
2017-10-09T07:20:47.660Z,6.22
2017-10-09T07:21:50.265Z,6.53
2017-10-09T07:22:52.779Z,5.75
2017-10-09T07:23:56.044Z,6.70
2017-10-09T07:24:58.561Z,6.95
2017-10-09T07:26:01.109Z,5.80
2017-10-09T07:27:03.675Z,6.12
2017-10-09T07:28:06.261Z,5.80
2017-10-09T07:29:08.753Z,6.40
2017-10-09T07:30:11.247Z,5.47
2017-10-09T07:31:14.499Z,5.57
2017-10-09T07:32:17.001Z,6.30
2017-10-09T07:33:20.292Z,6.70
2017-10-09T07:34:22.807Z,6.57
2017-10-09T07:35:25.542Z,6.53
2017-10-09T07:36:28.028Z,6.95
2017-10-09T07:37:30.576Z,6.97
2017-10-09T07:38:33.550Z,6.95
2017-10-09T07:39:36.219Z,7.00
2017-10-09T07:40:38.798Z,6.75
2017-10-09T07:41:41.329Z,7.18
2017-10-09T07:42:44.639Z,7.05
2017-10-09T07:43:47.140Z,7.12
2017-10-09T07:44:49.675Z,6.60
2017-10-09T07:45:52.239Z,6.30
2017-10-09T07:46:54.743Z,6.65
2017-10-09T07:47:57.700Z,5.95
2017-10-09T07:49:01.020Z,5.57
2017-10-09T07:50:03.531Z,5.00
2017-10-09T07:51:06.104Z,6.50
2017-10-09T07:52:08.663Z,6.03
2017-10-09T07:53:11.149Z,5.82
2017-10-09T07:54:13.646Z,5.90
2017-10-09T07:55:16.165Z,5.10
2017-10-09T07:56:18.673Z,5.85
2017-10-09T07:57:21.189Z,5.43
2017-10-09T07:58:23.795Z,5.82
2017-10-09T07:59:26.357Z,5.37
2017-10-09T08:00:28.936Z,5.35
2017-10-09T08:01:31.628Z,5.25
2017-10-09T08:02:34.316Z,5.10
2017-10-09T08:03:37.615Z,5.80
2017-10-09T08:04:40.188Z,5.10
2017-10-09T08:05:42.769Z,4.95
2017-10-09T08:06:45.265Z,5.30
2017-10-09T08:07:47.798Z,5.72
2017-10-09T08:08:50.285Z,5.50
2017-10-09T08:09:52.815Z,4.65
2017-10-09T08:10:55.424Z,4.70
2017-10-09T08:11:57.973Z,5.12
2017-10-09T08:13:00.500Z,5.30
2017-10-09T08:14:03.809Z,4.80
2017-10-09T08:15:06.300Z,5.20
2017-10-09T08:16:08.845Z,5.62
2017-10-09T08:17:11.399Z,5.35
2017-10-09T08:18:13.968Z,4.35
2017-10-09T08:19:16.484Z,5.03
2017-10-09T08:20:18.984Z,4.40
2017-10-09T08:21:22.263Z,5.50
2017-10-09T08:22:25.562Z,4.90
2017-10-09T08:23:28.080Z,5.85
2017-10-09T08:24:35.407Z,4.53
2017-10-09T08:25:37.884Z,5.62
2017-10-09T08:26:40.396Z,5.18
2017-10-09T08:27:42.965Z,5.93
2017-10-09T08:28:45.454Z,5.47
2017-10-09T08:29:48.766Z,4.70
2017-10-09T08:30:51.448Z,5.65
2017-10-09T08:31:54.096Z,5.87
2017-10-09T08:32:56.567Z,5.07
2017-10-09T08:33:59.053Z,6.00
2017-10-09T08:35:01.546Z,4.47
2017-10-09T08:36:04.026Z,5.00
2017-10-09T08:37:07.270Z,5.07
2017-10-09T08:38:09.785Z,5.30
2017-10-09T08:39:13.055Z,4.60
2017-10-09T08:40:15.518Z,5.03
2017-10-09T08:41:18.789Z,5.37
2017-10-09T08:42:21.271Z,5.28
2017-10-09T08:43:24.538Z,5.00
2017-10-09T08:44:27.017Z,4.82
2017-10-09T08:45:30.334Z,5.15
2017-10-09T08:46:32.801Z,4.82
2017-10-09T08:47:35.289Z,4.65
2017-10-09T08:48:37.774Z,3.75
2017-10-09T08:49:40.288Z,4.30
2017-10-09T08:50:42.794Z,4.93
2017-10-09T08:51:45.333Z,4.25
2017-10-09T08:52:47.819Z,4.30
2017-10-09T08:53:50.422Z,5.57
2017-10-09T08:54:53.796Z,4.85
2017-10-09T08:55:56.308Z,4.28
2017-10-09T08:56:59.399Z,5.10
2017-10-09T08:58:02.160Z,4.97
2017-10-09T08:59:04.649Z,4.93
2017-10-09T09:00:07.159Z,4.50
2017-10-09T09:01:09.761Z,4.97
2017-10-09T09:02:12.248Z,4.68
2017-10-09T09:03:14.792Z,4.78
2017-10-09T09:04:17.279Z,5.55
2017-10-09T09:05:19.805Z,4.00
2017-10-09T09:06:23.078Z,5.00
2017-10-09T09:07:26.396Z,4.55
2017-10-09T09:08:28.907Z,4.47
2017-10-09T09:09:31.397Z,5.10
2017-10-09T09:10:34.669Z,4.45
2017-10-09T09:11:38.012Z,5.28
2017-10-09T09:12:40.507Z,4.47
2017-10-09T09:13:43.128Z,4.93
2017-10-09T09:14:45.792Z,4.30
2017-10-09T09:15:48.285Z,4.50
2017-10-09T09:16:50.766Z,5.20
2017-10-09T09:17:53.329Z,4.05
2017-10-09T09:18:55.815Z,4.82
2017-10-09T09:19:58.432Z,4.75
2017-10-09T09:21:01.045Z,5.05
2017-10-09T09:22:03.659Z,5.05
2017-10-09T09:23:06.159Z,4.90
2017-10-09T09:24:08.768Z,4.25
2017-10-09T09:25:12.178Z,4.97
2017-10-09T09:26:14.679Z,5.05
2017-10-09T09:27:17.209Z,5.35
2017-10-09T09:28:19.791Z,4.80
2017-10-09T09:29:22.446Z,4.65
2017-10-09T09:30:25.016Z,4.87
2017-10-09T09:31:27.509Z,5.47
2017-10-09T09:32:30.025Z,4.95
2017-10-09T09:33:33.437Z,5.57
2017-10-09T09:34:35.925Z,4.75
2017-10-09T09:35:38.417Z,5.05
2017-10-09T09:36:40.923Z,7.05
2017-10-09T09:37:43.500Z,4.30
2017-10-09T09:38:46.634Z,4.30
2017-10-09T09:39:49.248Z,5.35
2017-10-09T09:40:51.717Z,4.70
2017-10-09T09:41:54.274Z,5.87
2017-10-09T09:42:56.762Z,5.28
2017-10-09T09:43:59.261Z,4.90
2017-10-09T09:45:01.779Z,4.80
2017-10-09T09:46:04.283Z,5.62
2017-10-09T09:47:07.253Z,5.18
2017-10-09T09:48:09.726Z,4.37
2017-10-09T09:49:12.242Z,5.40
2017-10-09T09:50:14.723Z,4.62
2017-10-09T09:51:17.235Z,5.20
2017-10-09T09:52:19.726Z,4.60
2017-10-09T09:53:23.127Z,5.00
2017-10-09T09:54:25.639Z,4.72
2017-10-09T09:55:28.310Z,4.87
2017-10-09T09:56:31.286Z,4.93
2017-10-09T09:57:33.805Z,4.55
2017-10-09T09:58:36.289Z,4.20
2017-10-09T09:59:38.788Z,4.50
2017-10-09T10:00:41.342Z,4.75
2017-10-09T10:01:43.865Z,4.70
2017-10-09T10:02:46.354Z,3.50
2017-10-09T10:03:48.849Z,4.37
2017-10-09T10:04:51.337Z,4.80
2017-10-09T10:05:54.619Z,4.10
2017-10-09T10:06:57.871Z,4.35
2017-10-09T10:08:00.400Z,3.47
2017-10-09T10:09:02.892Z,4.18
2017-10-09T10:10:05.375Z,5.10
2017-10-09T10:11:07.897Z,4.03
2017-10-09T10:12:10.457Z,4.82
2017-10-09T10:13:13.024Z,4.32
2017-10-09T10:14:15.555Z,3.95
2017-10-09T10:15:18.035Z,3.67
2017-10-09T10:16:22.219Z,5.18
2017-10-09T10:17:24.726Z,4.57
2017-10-09T10:18:28.269Z,4.50
2017-10-09T10:19:30.781Z,3.83
2017-10-09T10:20:33.269Z,5.22
2017-10-09T10:21:35.865Z,4.03
2017-10-09T10:22:38.347Z,4.45
2017-10-09T10:23:40.920Z,4.18
2017-10-09T10:24:44.169Z,4.00
2017-10-09T10:25:46.656Z,4.18
2017-10-09T10:26:49.169Z,3.80
2017-10-09T10:27:52.135Z,4.43
2017-10-09T10:28:54.628Z,4.65
2017-10-09T10:29:57.143Z,4.87
2017-10-09T10:31:00.382Z,4.12
2017-10-09T10:32:02.891Z,4.32
2017-10-09T10:33:06.206Z,4.80
2017-10-09T10:34:08.732Z,4.62
2017-10-09T10:35:12.172Z,4.97
2017-10-09T10:36:14.876Z,4.30
2017-10-09T10:37:18.222Z,4.25
2017-10-09T10:38:20.710Z,4.40
2017-10-09T10:39:23.344Z,3.70
2017-10-09T10:40:25.827Z,4.60
2017-10-09T10:41:28.308Z,4.62
2017-10-09T10:42:30.901Z,4.60
2017-10-09T10:43:34.170Z,4.75
2017-10-09T10:44:37.402Z,4.65
2017-10-09T10:45:39.880Z,4.30
2017-10-09T10:46:42.438Z,4.95
2017-10-09T10:47:45.007Z,4.45
2017-10-09T10:48:47.574Z,4.85
2017-10-09T10:49:50.139Z,3.87
2017-10-09T10:50:52.612Z,4.30
2017-10-09T10:51:55.143Z,4.93
2017-10-09T10:52:58.417Z,4.95
2017-10-09T10:54:00.926Z,4.25
2017-10-09T10:55:03.483Z,5.18
2017-10-09T10:56:06.053Z,5.07
2017-10-09T10:57:08.618Z,5.60
2017-10-09T10:58:13.141Z,4.32
2017-10-09T10:59:15.623Z,6.12
2017-10-09T11:00:19.187Z,5.65
2017-10-09T11:01:21.678Z,4.68
2017-10-09T11:02:25.191Z,6.62
2017-10-09T11:03:27.681Z,6.40
2017-10-09T11:04:30.991Z,5.15
2017-10-09T11:05:33.497Z,5.53
2017-10-09T11:06:36.091Z,6.55
2017-10-09T11:07:38.800Z,7.00
2017-10-09T11:08:41.304Z,6.68
2017-10-09T11:09:43.839Z,7.53
2017-10-09T11:10:46.360Z,5.90
2017-10-09T11:11:49.673Z,7.90
2017-10-09T11:12:52.167Z,8.27
2017-10-09T11:13:54.817Z,7.50
2017-10-09T11:14:58.345Z,7.87
2017-10-09T11:16:00.843Z,9.25
2017-10-09T11:17:04.976Z,9.43
2017-10-09T11:18:07.538Z,8.57
2017-10-09T11:19:10.024Z,7.70
2017-10-09T11:20:12.569Z,9.05
2017-10-09T11:21:15.136Z,8.40
2017-10-09T11:22:18.116Z,9.75
2017-10-09T11:23:20.639Z,9.63
2017-10-09T11:24:23.142Z,9.75
2017-10-09T11:25:25.654Z,9.93
2017-10-09T11:26:28.150Z,8.95
2017-10-09T11:27:31.421Z,11.25
2017-10-09T11:28:34.059Z,10.82
2017-10-09T11:29:36.705Z,10.45
2017-10-09T11:30:39.183Z,11.35
2017-10-09T11:31:42.722Z,10.18
2017-10-09T11:32:46.003Z,9.57
2017-10-09T11:33:49.267Z,8.90
2017-10-09T11:34:51.884Z,9.23
2017-10-09T11:35:54.368Z,9.20
2017-10-09T11:36:56.861Z,8.50
2017-10-09T11:37:59.346Z,9.80
2017-10-09T11:39:01.826Z,9.48
2017-10-09T11:40:05.159Z,8.32
2017-10-09T11:41:07.653Z,9.00
2017-10-09T11:42:11.667Z,9.68
2017-10-09T11:43:14.162Z,8.82
2017-10-09T11:44:16.731Z,8.63
2017-10-09T11:45:19.306Z,7.53
2017-10-09T11:46:22.740Z,7.30
2017-10-09T11:47:29.857Z,8.40
2017-10-09T11:48:35.046Z,9.75
2017-10-09T11:49:37.546Z,9.65
2017-10-09T11:50:40.534Z,8.50
2017-10-09T11:51:43.411Z,8.57
2017-10-09T11:52:46.865Z,9.00
2017-10-09T11:53:50.382Z,7.82
2017-10-09T11:54:52.891Z,9.25
2017-10-09T11:55:55.447Z,9.43
2017-10-09T11:56:57.918Z,8.10
2017-10-09T11:58:00.429Z,9.15
2017-10-09T11:59:03.713Z,8.30
2017-10-09T12:00:06.311Z,9.27
2017-10-09T12:01:09.224Z,7.40
2017-10-09T12:02:11.712Z,8.70
2017-10-09T12:03:15.472Z,8.27
2017-10-09T12:04:22.635Z,8.32
2017-10-09T12:05:25.280Z,8.30
2017-10-09T12:06:28.692Z,8.95
2017-10-09T12:07:31.201Z,7.90
2017-10-09T12:08:33.754Z,7.82
2017-10-09T12:09:36.242Z,8.73
2017-10-09T12:10:38.853Z,8.40
2017-10-09T12:11:41.363Z,8.73
2017-10-09T12:12:43.876Z,7.90
2017-10-09T12:13:54.109Z,7.55
2017-10-09T12:14:57.384Z,8.15
2017-10-09T12:15:59.880Z,8.07
2017-10-09T12:17:02.366Z,8.10
2017-10-09T12:18:04.883Z,8.27
2017-10-09T12:19:08.204Z,8.35
2017-10-09T12:20:11.177Z,7.70
2017-10-09T12:21:13.744Z,8.73
2017-10-09T12:22:16.240Z,10.25
2017-10-09T12:23:18.748Z,7.75
2017-10-09T12:24:22.059Z,7.25
2017-10-09T12:25:24.547Z,9.25
2017-10-09T12:26:27.190Z,10.15
2017-10-09T12:27:29.765Z,8.88
2017-10-09T12:28:32.260Z,9.27
2017-10-09T12:29:34.792Z,8.90
2017-10-09T12:30:37.271Z,9.10
2017-10-09T12:31:39.769Z,10.02
2017-10-09T12:32:42.760Z,9.80
2017-10-09T12:33:45.272Z,10.25
2017-10-09T12:34:47.792Z,11.77
2017-10-09T12:35:50.402Z,10.00
2017-10-09T12:36:52.926Z,9.40
2017-10-09T12:37:55.428Z,9.60
2017-10-09T12:38:57.946Z,8.68
2017-10-09T12:40:00.462Z,9.05
2017-10-09T12:41:02.955Z,9.07
2017-10-09T12:42:05.490Z,8.80
2017-10-09T12:43:08.741Z,9.35
2017-10-09T12:44:11.349Z,8.32
2017-10-09T12:45:13.853Z,9.23
2017-10-09T12:46:16.345Z,8.32
2017-10-09T12:47:18.850Z,9.60
2017-10-09T12:48:21.456Z,9.35
2017-10-09T12:49:23.944Z,9.77
2017-10-09T12:50:26.433Z,9.52
2017-10-09T12:51:29.726Z,9.73
2017-10-09T12:52:33.220Z,9.75
2017-10-09T12:53:35.734Z,10.00
2017-10-09T12:54:38.245Z,8.68
2017-10-09T12:55:40.736Z,8.63
2017-10-09T12:56:43.281Z,8.73
2017-10-09T12:57:45.868Z,10.13
2017-10-09T12:58:50.413Z,9.75
2017-10-09T12:59:54.984Z,13.05
2017-10-09T13:00:57.466Z,12.77
2017-10-09T13:02:00.035Z,10.63
2017-10-09T13:03:02.527Z,11.38
2017-10-09T13:04:05.118Z,10.98
2017-10-09T13:05:08.494Z,11.35
2017-10-09T13:06:11.013Z,11.55
2017-10-09T13:07:14.344Z,11.55
2017-10-09T13:08:17.665Z,10.82
2017-10-09T13:09:20.159Z,9.55
2017-10-09T13:10:22.696Z,10.65
2017-10-09T13:11:25.668Z,11.12
2017-10-09T13:12:28.245Z,11.32
2017-10-09T13:13:30.804Z,10.13
2017-10-09T13:14:33.320Z,10.75
2017-10-09T13:15:35.944Z,9.93
2017-10-09T13:16:38.481Z,10.05
2017-10-09T13:17:41.792Z,10.23
2017-10-09T13:18:44.333Z,10.57
2017-10-09T13:19:47.579Z,12.63
2017-10-09T13:20:50.063Z,10.90
2017-10-09T13:21:52.671Z,12.10
2017-10-09T13:22:55.238Z,12.70
2017-10-09T13:23:58.457Z,11.20
2017-10-09T13:25:00.974Z,10.88
2017-10-09T13:26:03.484Z,10.00
2017-10-09T13:27:06.181Z,11.38
2017-10-09T13:28:08.685Z,11.63
2017-10-09T13:29:11.260Z,11.98
2017-10-09T13:30:13.745Z,11.45
2017-10-09T13:31:16.286Z,12.35
2017-10-09T13:32:18.763Z,11.30
2017-10-09T13:33:21.274Z,10.73
2017-10-09T13:34:23.841Z,12.77
2017-10-09T13:35:26.349Z,12.00
2017-10-09T13:36:29.002Z,10.65
2017-10-09T13:37:32.298Z,12.40
2017-10-09T13:38:35.563Z,10.30
2017-10-09T13:39:42.558Z,11.43
2017-10-09T13:40:45.928Z,10.55
2017-10-09T13:41:49.182Z,11.60
2017-10-09T13:42:51.694Z,11.15
2017-10-09T13:43:54.263Z,10.65
2017-10-09T13:44:56.769Z,11.18
2017-10-09T13:45:59.310Z,11.32
2017-10-09T13:47:01.876Z,9.60
2017-10-09T13:48:04.366Z,11.48
2017-10-09T13:49:07.487Z,10.07
2017-10-09T13:50:10.903Z,11.15
2017-10-09T13:51:13.397Z,11.65
2017-10-09T13:52:16.006Z,11.48